sensor_id;sensor_type;location;lat;lon;timestamp;P1;durP1;ratioP1;P2;durP2;ratioP2
61709;SDS011;47633;51.494;5.386;2022-10-31T00:00:24;6.90;;;3.27;;
61709;SDS011;47633;51.494;5.386;2022-10-31T00:02:50;8.47;;;3.97;;
61709;SDS011;47633;51.494;5.386;2022-10-31T00:05:15;6.73;;;4.00;;
61709;SDS011;47633;51.494;5.386;2022-10-31T00:07:40;6.82;;;4.15;;
61709;SDS011;47633;51.494;5.386;2022-10-31T00:10:06;7.03;;;4.07;;
61709;SDS011;47633;51.494;5.386;2022-10-31T00:12:32;5.55;;;3.05;;
61709;SDS011;47633;51.494;5.386;2022-10-31T00:14:57;5.88;;;3.65;;
61709;SDS011;47633;51.494;5.386;2022-10-31T00:17:22;6.23;;;3.60;;
61709;SDS011;47633;51.494;5.386;2022-10-31T00:19:47;6.35;;;3.28;;
61709;SDS011;47633;51.494;5.386;2022-10-31T00:22:13;5.90;;;3.28;;
61709;SDS011;47633;51.494;5.386;2022-10-31T00:24:38;8.35;;;4.00;;
61709;SDS011;47633;51.494;5.386;2022-10-31T00:27:03;6.23;;;3.57;;
61709;SDS011;47633;51.494;5.386;2022-10-31T00:29:28;5.40;;;3.30;;
61709;SDS011;47633;51.494;5.386;2022-10-31T00:31:54;6.80;;;3.63;;
61709;SDS011;47633;51.494;5.386;2022-10-31T00:34:19;8.43;;;3.70;;
61709;SDS011;47633;51.494;5.386;2022-10-31T00:36:44;8.80;;;3.67;;
61709;SDS011;47633;51.494;5.386;2022-10-31T00:39:09;6.03;;;3.53;;
61709;SDS011;47633;51.494;5.386;2022-10-31T00:41:35;9.00;;;3.80;;
61709;SDS011;47633;51.494;5.386;2022-10-31T00:44:00;6.43;;;3.40;;
61709;SDS011;47633;51.494;5.386;2022-10-31T00:46:25;5.88;;;3.92;;
61709;SDS011;47633;51.494;5.386;2022-10-31T00:48:51;7.70;;;3.80;;
61709;SDS011;47633;51.494;5.386;2022-10-31T00:51:16;6.60;;;3.58;;
61709;SDS011;47633;51.494;5.386;2022-10-31T00:53:41;5.88;;;3.50;;
61709;SDS011;47633;51.494;5.386;2022-10-31T00:56:07;6.28;;;3.88;;
61709;SDS011;47633;51.494;5.386;2022-10-31T00:58:32;5.72;;;3.75;;
61709;SDS011;47633;51.494;5.386;2022-10-31T01:00:57;5.30;;;3.50;;
61709;SDS011;47633;51.494;5.386;2022-10-31T01:03:23;6.50;;;3.53;;
61709;SDS011;47633;51.494;5.386;2022-10-31T01:06:00;6.63;;;3.90;;
61709;SDS011;47633;51.494;5.386;2022-10-31T01:08:30;6.63;;;3.58;;
61709;SDS011;47633;51.494;5.386;2022-10-31T01:11:00;6.40;;;3.42;;
61709;SDS011;47633;51.494;5.386;2022-10-31T01:13:26;5.93;;;3.17;;
61709;SDS011;47633;51.494;5.386;2022-10-31T01:15:55;6.00;;;3.13;;
61709;SDS011;47633;51.494;5.386;2022-10-31T01:18:22;5.78;;;3.50;;
61709;SDS011;47633;51.494;5.386;2022-10-31T01:20:47;6.32;;;3.20;;
61709;SDS011;47633;51.494;5.386;2022-10-31T01:23:22;6.28;;;3.78;;
61709;SDS011;47633;51.494;5.386;2022-10-31T01:25:47;6.37;;;4.07;;
61709;SDS011;47633;51.494;5.386;2022-10-31T01:28:12;7.00;;;3.67;;
61709;SDS011;47633;51.494;5.386;2022-10-31T01:30:37;6.90;;;3.93;;
61709;SDS011;47633;51.494;5.386;2022-10-31T01:33:03;6.60;;;3.60;;
61709;SDS011;47633;51.494;5.386;2022-10-31T01:35:28;6.03;;;3.67;;
61709;SDS011;47633;51.494;5.386;2022-10-31T01:37:53;7.60;;;3.77;;
61709;SDS011;47633;51.494;5.386;2022-10-31T01:40:19;6.38;;;3.65;;
61709;SDS011;47633;51.494;5.386;2022-10-31T01:42:44;6.50;;;3.53;;
61709;SDS011;47633;51.494;5.386;2022-10-31T01:45:10;8.50;;;3.30;;
61709;SDS011;47633;51.494;5.386;2022-10-31T01:47:38;6.18;;;3.63;;
61709;SDS011;47633;51.494;5.386;2022-10-31T01:50:12;6.13;;;3.78;;
61709;SDS011;47633;51.494;5.386;2022-10-31T01:52:45;5.07;;;3.53;;
61709;SDS011;47633;51.494;5.386;2022-10-31T01:55:14;5.85;;;3.78;;
61709;SDS011;47633;51.494;5.386;2022-10-31T01:57:44;7.13;;;4.10;;
61709;SDS011;47633;51.494;5.386;2022-10-31T02:00:13;6.15;;;3.95;;
61709;SDS011;47633;51.494;5.386;2022-10-31T02:02:40;6.05;;;3.72;;
61709;SDS011;47633;51.494;5.386;2022-10-31T02:05:08;6.10;;;3.90;;
61709;SDS011;47633;51.494;5.386;2022-10-31T02:07:45;6.43;;;4.00;;
61709;SDS011;47633;51.494;5.386;2022-10-31T02:10:16;5.82;;;3.55;;
61709;SDS011;47633;51.494;5.386;2022-10-31T02:12:43;5.93;;;3.88;;
61709;SDS011;47633;51.494;5.386;2022-10-31T02:15:09;6.35;;;3.50;;
61709;SDS011;47633;51.494;5.386;2022-10-31T02:17:35;7.35;;;3.40;;
61709;SDS011;47633;51.494;5.386;2022-10-31T02:20:04;6.70;;;4.13;;
61709;SDS011;47633;51.494;5.386;2022-10-31T02:31:06;7.13;;;3.40;;
61709;SDS011;47633;51.494;5.386;2022-10-31T02:33:59;6.75;;;3.53;;
61709;SDS011;47633;51.494;5.386;2022-10-31T02:36:58;7.10;;;4.13;;
61709;SDS011;47633;51.494;5.386;2022-10-31T02:39:29;7.15;;;3.90;;
61709;SDS011;47633;51.494;5.386;2022-10-31T02:42:09;5.18;;;3.28;;
61709;SDS011;47633;51.494;5.386;2022-10-31T02:47:46;6.40;;;3.75;;
61709;SDS011;47633;51.494;5.386;2022-10-31T02:50:20;5.90;;;3.53;;
61709;SDS011;47633;51.494;5.386;2022-10-31T02:52:50;6.30;;;3.60;;
61709;SDS011;47633;51.494;5.386;2022-10-31T02:57:55;6.38;;;3.53;;
61709;SDS011;47633;51.494;5.386;2022-10-31T03:00:25;5.47;;;3.25;;
61709;SDS011;47633;51.494;5.386;2022-10-31T03:05:54;7.38;;;3.25;;
61709;SDS011;47633;51.494;5.386;2022-10-31T03:11:15;9.00;;;3.38;;
61709;SDS011;47633;51.494;5.386;2022-10-31T03:13:47;5.30;;;3.20;;
61709;SDS011;47633;51.494;5.386;2022-10-31T03:18:53;5.63;;;3.47;;
61709;SDS011;47633;51.494;5.386;2022-10-31T03:24:08;5.45;;;3.60;;
61709;SDS011;47633;51.494;5.386;2022-10-31T03:26:35;5.47;;;3.58;;
61709;SDS011;47633;51.494;5.386;2022-10-31T03:29:06;5.90;;;3.63;;
61709;SDS011;47633;51.494;5.386;2022-10-31T03:31:35;6.18;;;3.35;;
61709;SDS011;47633;51.494;5.386;2022-10-31T03:34:07;6.30;;;3.55;;
61709;SDS011;47633;51.494;5.386;2022-10-31T03:36:34;5.82;;;3.30;;
61709;SDS011;47633;51.494;5.386;2022-10-31T03:39:04;4.93;;;3.30;;
61709;SDS011;47633;51.494;5.386;2022-10-31T03:41:32;6.18;;;3.70;;
61709;SDS011;47633;51.494;5.386;2022-10-31T03:44:04;5.75;;;3.60;;
61709;SDS011;47633;51.494;5.386;2022-10-31T03:46:35;5.47;;;3.15;;
61709;SDS011;47633;51.494;5.386;2022-10-31T03:49:01;5.57;;;3.42;;
61709;SDS011;47633;51.494;5.386;2022-10-31T03:53:56;5.93;;;3.13;;
61709;SDS011;47633;51.494;5.386;2022-10-31T03:56:37;7.10;;;3.47;;
61709;SDS011;47633;51.494;5.386;2022-10-31T03:59:15;5.80;;;3.28;;
61709;SDS011;47633;51.494;5.386;2022-10-31T04:01:48;4.70;;;3.28;;
61709;SDS011;47633;51.494;5.386;2022-10-31T04:04:17;5.63;;;3.17;;
61709;SDS011;47633;51.494;5.386;2022-10-31T04:06:44;5.60;;;3.80;;
61709;SDS011;47633;51.494;5.386;2022-10-31T04:09:12;6.20;;;3.38;;
61709;SDS011;47633;51.494;5.386;2022-10-31T04:11:45;7.00;;;3.50;;
61709;SDS011;47633;51.494;5.386;2022-10-31T04:14:15;5.88;;;3.47;;
61709;SDS011;47633;51.494;5.386;2022-10-31T04:16:41;8.95;;;3.50;;
61709;SDS011;47633;51.494;5.386;2022-10-31T04:19:09;6.40;;;3.55;;
61709;SDS011;47633;51.494;5.386;2022-10-31T04:21:38;5.10;;;3.55;;
61709;SDS011;47633;51.494;5.386;2022-10-31T04:24:03;6.15;;;3.40;;
61709;SDS011;47633;51.494;5.386;2022-10-31T04:26:29;5.40;;;3.53;;
61709;SDS011;47633;51.494;5.386;2022-10-31T04:28:54;5.85;;;3.45;;
61709;SDS011;47633;51.494;5.386;2022-10-31T04:31:19;5.93;;;3.63;;
61709;SDS011;47633;51.494;5.386;2022-10-31T04:33:44;5.40;;;3.35;;
61709;SDS011;47633;51.494;5.386;2022-10-31T04:36:10;7.35;;;3.90;;
61709;SDS011;47633;51.494;5.386;2022-10-31T04:38:35;7.35;;;3.72;;
61709;SDS011;47633;51.494;5.386;2022-10-31T04:41:01;6.03;;;3.70;;
61709;SDS011;47633;51.494;5.386;2022-10-31T04:43:26;6.40;;;3.53;;
61709;SDS011;47633;51.494;5.386;2022-10-31T04:45:51;6.17;;;3.23;;
61709;SDS011;47633;51.494;5.386;2022-10-31T04:48:16;5.72;;;3.17;;
61709;SDS011;47633;51.494;5.386;2022-10-31T04:50:42;5.93;;;3.60;;
61709;SDS011;47633;51.494;5.386;2022-10-31T04:53:07;5.90;;;3.43;;
61709;SDS011;47633;51.494;5.386;2022-10-31T04:55:32;6.72;;;3.80;;
61709;SDS011;47633;51.494;5.386;2022-10-31T04:57:58;6.50;;;3.77;;
61709;SDS011;47633;51.494;5.386;2022-10-31T05:00:23;6.00;;;3.50;;
61709;SDS011;47633;51.494;5.386;2022-10-31T05:02:56;5.63;;;3.63;;
61709;SDS011;47633;51.494;5.386;2022-10-31T05:05:23;5.75;;;3.50;;
61709;SDS011;47633;51.494;5.386;2022-10-31T05:07:51;5.57;;;3.55;;
61709;SDS011;47633;51.494;5.386;2022-10-31T05:10:18;6.63;;;3.42;;
61709;SDS011;47633;51.494;5.386;2022-10-31T05:12:45;6.68;;;3.35;;
61709;SDS011;47633;51.494;5.386;2022-10-31T05:15:15;4.90;;;3.20;;
61709;SDS011;47633;51.494;5.386;2022-10-31T05:17:42;6.18;;;3.75;;
61709;SDS011;47633;51.494;5.386;2022-10-31T05:20:07;5.97;;;3.30;;
61709;SDS011;47633;51.494;5.386;2022-10-31T05:22:33;5.53;;;3.25;;
61709;SDS011;47633;51.494;5.386;2022-10-31T05:24:59;4.67;;;3.03;;
61709;SDS011;47633;51.494;5.386;2022-10-31T05:27:24;5.13;;;3.40;;
61709;SDS011;47633;51.494;5.386;2022-10-31T05:29:49;7.03;;;3.65;;
61709;SDS011;47633;51.494;5.386;2022-10-31T05:32:15;6.20;;;3.47;;
61709;SDS011;47633;51.494;5.386;2022-10-31T05:34:40;5.82;;;3.45;;
61709;SDS011;47633;51.494;5.386;2022-10-31T05:37:05;5.78;;;3.70;;
61709;SDS011;47633;51.494;5.386;2022-10-31T05:39:30;7.90;;;3.57;;
61709;SDS011;47633;51.494;5.386;2022-10-31T05:41:56;5.82;;;3.90;;
61709;SDS011;47633;51.494;5.386;2022-10-31T05:44:21;6.90;;;3.80;;
61709;SDS011;47633;51.494;5.386;2022-10-31T05:46:46;5.80;;;3.72;;
61709;SDS011;47633;51.494;5.386;2022-10-31T05:49:12;5.00;;;3.50;;
61709;SDS011;47633;51.494;5.386;2022-10-31T05:51:37;6.15;;;3.60;;
61709;SDS011;47633;51.494;5.386;2022-10-31T05:54:03;6.38;;;3.70;;
61709;SDS011;47633;51.494;5.386;2022-10-31T05:56:28;5.93;;;3.78;;
61709;SDS011;47633;51.494;5.386;2022-10-31T05:58:53;6.20;;;3.73;;
61709;SDS011;47633;51.494;5.386;2022-10-31T06:01:19;8.07;;;4.75;;
61709;SDS011;47633;51.494;5.386;2022-10-31T06:03:44;6.60;;;3.87;;
61709;SDS011;47633;51.494;5.386;2022-10-31T06:06:09;7.13;;;3.70;;
61709;SDS011;47633;51.494;5.386;2022-10-31T06:08:35;6.57;;;3.90;;
61709;SDS011;47633;51.494;5.386;2022-10-31T06:11:00;5.13;;;3.22;;
61709;SDS011;47633;51.494;5.386;2022-10-31T06:13:25;6.83;;;3.60;;
61709;SDS011;47633;51.494;5.386;2022-10-31T06:15:51;6.75;;;3.83;;
61709;SDS011;47633;51.494;5.386;2022-10-31T06:18:16;6.17;;;3.87;;
61709;SDS011;47633;51.494;5.386;2022-10-31T06:20:41;6.30;;;4.13;;
61709;SDS011;47633;51.494;5.386;2022-10-31T06:23:07;7.17;;;4.50;;
61709;SDS011;47633;51.494;5.386;2022-10-31T06:25:32;5.90;;;4.32;;
61709;SDS011;47633;51.494;5.386;2022-10-31T06:27:58;7.55;;;4.40;;
61709;SDS011;47633;51.494;5.386;2022-10-31T06:30:23;7.32;;;4.22;;
61709;SDS011;47633;51.494;5.386;2022-10-31T06:32:49;7.93;;;4.35;;
61709;SDS011;47633;51.494;5.386;2022-10-31T06:35:14;5.88;;;3.72;;
61709;SDS011;47633;51.494;5.386;2022-10-31T06:37:40;6.72;;;4.57;;
61709;SDS011;47633;51.494;5.386;2022-10-31T06:40:05;8.32;;;4.82;;
61709;SDS011;47633;51.494;5.386;2022-10-31T06:42:31;5.82;;;3.95;;
61709;SDS011;47633;51.494;5.386;2022-10-31T06:44:56;7.72;;;5.28;;
61709;SDS011;47633;51.494;5.386;2022-10-31T06:47:21;7.37;;;4.23;;
61709;SDS011;47633;51.494;5.386;2022-10-31T06:49:47;6.10;;;3.97;;
61709;SDS011;47633;51.494;5.386;2022-10-31T06:52:12;7.13;;;4.30;;
61709;SDS011;47633;51.494;5.386;2022-10-31T06:54:37;7.30;;;4.65;;
61709;SDS011;47633;51.494;5.386;2022-10-31T06:57:02;7.17;;;4.33;;
61709;SDS011;47633;51.494;5.386;2022-10-31T06:59:28;6.25;;;4.03;;
61709;SDS011;47633;51.494;5.386;2022-10-31T07:01:53;6.68;;;4.18;;
61709;SDS011;47633;51.494;5.386;2022-10-31T07:04:18;7.30;;;4.00;;
61709;SDS011;47633;51.494;5.386;2022-10-31T07:06:44;7.22;;;4.05;;
61709;SDS011;47633;51.494;5.386;2022-10-31T07:09:09;7.35;;;4.00;;
61709;SDS011;47633;51.494;5.386;2022-10-31T07:11:34;6.32;;;4.10;;
61709;SDS011;47633;51.494;5.386;2022-10-31T07:14:00;7.03;;;4.38;;
61709;SDS011;47633;51.494;5.386;2022-10-31T07:16:25;8.35;;;4.03;;
61709;SDS011;47633;51.494;5.386;2022-10-31T07:18:50;5.97;;;3.75;;
61709;SDS011;47633;51.494;5.386;2022-10-31T07:21:16;6.72;;;3.95;;
61709;SDS011;47633;51.494;5.386;2022-10-31T07:23:41;7.75;;;4.78;;
61709;SDS011;47633;51.494;5.386;2022-10-31T07:26:07;9.03;;;3.90;;
61709;SDS011;47633;51.494;5.386;2022-10-31T07:28:32;7.82;;;4.28;;
61709;SDS011;47633;51.494;5.386;2022-10-31T07:30:58;7.83;;;4.63;;
61709;SDS011;47633;51.494;5.386;2022-10-31T07:33:23;8.45;;;5.07;;
61709;SDS011;47633;51.494;5.386;2022-10-31T07:35:52;7.70;;;4.32;;
61709;SDS011;47633;51.494;5.386;2022-10-31T07:38:18;8.52;;;4.53;;
61709;SDS011;47633;51.494;5.386;2022-10-31T07:40:43;5.97;;;3.85;;
61709;SDS011;47633;51.494;5.386;2022-10-31T07:43:11;8.13;;;4.07;;
61709;SDS011;47633;51.494;5.386;2022-10-31T07:45:37;8.77;;;4.32;;
61709;SDS011;47633;51.494;5.386;2022-10-31T07:48:02;8.57;;;4.45;;
61709;SDS011;47633;51.494;5.386;2022-10-31T07:50:30;6.65;;;4.22;;
61709;SDS011;47633;51.494;5.386;2022-10-31T07:55:29;7.70;;;4.50;;
61709;SDS011;47633;51.494;5.386;2022-10-31T07:57:58;9.10;;;4.78;;
61709;SDS011;47633;51.494;5.386;2022-10-31T08:00:25;9.98;;;4.68;;
61709;SDS011;47633;51.494;5.386;2022-10-31T08:02:57;11.82;;;5.03;;
61709;SDS011;47633;51.494;5.386;2022-10-31T08:05:23;12.23;;;5.20;;
61709;SDS011;47633;51.494;5.386;2022-10-31T08:07:48;10.07;;;5.10;;
61709;SDS011;47633;51.494;5.386;2022-10-31T08:10:13;9.63;;;4.97;;
61709;SDS011;47633;51.494;5.386;2022-10-31T08:12:39;13.68;;;6.65;;
61709;SDS011;47633;51.494;5.386;2022-10-31T08:15:04;10.68;;;5.68;;
61709;SDS011;47633;51.494;5.386;2022-10-31T08:17:30;10.60;;;5.45;;
61709;SDS011;47633;51.494;5.386;2022-10-31T08:19:55;12.03;;;5.23;;
61709;SDS011;47633;51.494;5.386;2022-10-31T08:22:20;10.43;;;5.60;;
61709;SDS011;47633;51.494;5.386;2022-10-31T08:24:45;10.87;;;5.10;;
61709;SDS011;47633;51.494;5.386;2022-10-31T08:27:11;11.43;;;5.53;;
61709;SDS011;47633;51.494;5.386;2022-10-31T08:29:36;10.33;;;5.73;;
61709;SDS011;47633;51.494;5.386;2022-10-31T08:32:01;9.47;;;5.17;;
61709;SDS011;47633;51.494;5.386;2022-10-31T08:34:26;10.75;;;5.20;;
61709;SDS011;47633;51.494;5.386;2022-10-31T08:36:52;9.45;;;5.30;;
61709;SDS011;47633;51.494;5.386;2022-10-31T08:39:17;13.02;;;6.15;;
61709;SDS011;47633;51.494;5.386;2022-10-31T08:41:42;13.63;;;5.90;;
61709;SDS011;47633;51.494;5.386;2022-10-31T08:44:07;10.07;;;5.10;;
61709;SDS011;47633;51.494;5.386;2022-10-31T08:46:33;13.18;;;5.70;;
61709;SDS011;47633;51.494;5.386;2022-10-31T08:48:59;13.25;;;6.15;;
61709;SDS011;47633;51.494;5.386;2022-10-31T08:51:24;11.07;;;5.70;;
61709;SDS011;47633;51.494;5.386;2022-10-31T08:53:49;10.13;;;5.97;;
61709;SDS011;47633;51.494;5.386;2022-10-31T08:56:15;12.48;;;5.68;;
61709;SDS011;47633;51.494;5.386;2022-10-31T08:58:40;10.25;;;5.70;;
61709;SDS011;47633;51.494;5.386;2022-10-31T09:01:05;11.10;;;6.13;;
61709;SDS011;47633;51.494;5.386;2022-10-31T09:03:31;8.95;;;5.68;;
61709;SDS011;47633;51.494;5.386;2022-10-31T09:06:01;10.52;;;5.10;;
61709;SDS011;47633;51.494;5.386;2022-10-31T09:08:31;10.07;;;5.57;;
61709;SDS011;47633;51.494;5.386;2022-10-31T09:10:57;12.07;;;5.22;;
61709;SDS011;47633;51.494;5.386;2022-10-31T09:13:23;12.13;;;5.35;;
61709;SDS011;47633;51.494;5.386;2022-10-31T09:15:49;9.82;;;5.75;;
61709;SDS011;47633;51.494;5.386;2022-10-31T09:18:16;12.48;;;6.07;;
61709;SDS011;47633;51.494;5.386;2022-10-31T09:20:43;11.20;;;6.07;;
61709;SDS011;47633;51.494;5.386;2022-10-31T09:23:10;12.43;;;5.70;;
61709;SDS011;47633;51.494;5.386;2022-10-31T09:25:36;10.00;;;6.35;;
61709;SDS011;47633;51.494;5.386;2022-10-31T09:28:03;9.10;;;5.30;;
61709;SDS011;47633;51.494;5.386;2022-10-31T09:30:31;10.18;;;5.50;;
61709;SDS011;47633;51.494;5.386;2022-10-31T09:32:58;10.77;;;5.95;;
61709;SDS011;47633;51.494;5.386;2022-10-31T09:35:25;11.90;;;6.07;;
61709;SDS011;47633;51.494;5.386;2022-10-31T09:37:58;10.35;;;5.55;;
61709;SDS011;47633;51.494;5.386;2022-10-31T09:40:39;10.90;;;5.78;;
61709;SDS011;47633;51.494;5.386;2022-10-31T09:45:53;12.73;;;6.63;;
61709;SDS011;47633;51.494;5.386;2022-10-31T09:48:37;9.18;;;5.90;;
61709;SDS011;47633;51.494;5.386;2022-10-31T09:51:08;11.35;;;5.43;;
61709;SDS011;47633;51.494;5.386;2022-10-31T09:53:40;13.25;;;5.70;;
61709;SDS011;47633;51.494;5.386;2022-10-31T09:56:16;11.65;;;5.90;;
61709;SDS011;47633;51.494;5.386;2022-10-31T09:58:46;10.50;;;6.03;;
61709;SDS011;47633;51.494;5.386;2022-10-31T10:04:16;12.07;;;5.20;;
61709;SDS011;47633;51.494;5.386;2022-10-31T10:06:45;10.25;;;5.50;;
61709;SDS011;47633;51.494;5.386;2022-10-31T10:09:12;11.32;;;5.38;;
61709;SDS011;47633;51.494;5.386;2022-10-31T10:14:34;14.40;;;6.00;;
61709;SDS011;47633;51.494;5.386;2022-10-31T10:23:02;12.57;;;5.78;;
61709;SDS011;47633;51.494;5.386;2022-10-31T10:25:37;12.10;;;6.07;;
61709;SDS011;47633;51.494;5.386;2022-10-31T10:28:08;12.25;;;5.85;;
61709;SDS011;47633;51.494;5.386;2022-10-31T10:30:43;8.85;;;5.40;;
61709;SDS011;47633;51.494;5.386;2022-10-31T10:33:13;8.30;;;5.03;;
61709;SDS011;47633;51.494;5.386;2022-10-31T10:35:50;11.20;;;5.38;;
61709;SDS011;47633;51.494;5.386;2022-10-31T10:40:55;12.20;;;5.82;;
61709;SDS011;47633;51.494;5.386;2022-10-31T10:43:38;11.15;;;5.95;;
61709;SDS011;47633;51.494;5.386;2022-10-31T10:59:30;13.10;;;6.30;;
61709;SDS011;47633;51.494;5.386;2022-10-31T11:01:55;10.38;;;6.40;;
61709;SDS011;47633;51.494;5.386;2022-10-31T11:04:30;11.07;;;5.55;;
61709;SDS011;47633;51.494;5.386;2022-10-31T11:07:01;13.38;;;6.43;;
61709;SDS011;47633;51.494;5.386;2022-10-31T11:09:27;13.60;;;6.45;;
61709;SDS011;47633;51.494;5.386;2022-10-31T11:11:52;11.20;;;6.50;;
61709;SDS011;47633;51.494;5.386;2022-10-31T11:14:19;13.02;;;7.55;;
61709;SDS011;47633;51.494;5.386;2022-10-31T11:16:46;14.93;;;6.68;;
61709;SDS011;47633;51.494;5.386;2022-10-31T11:19:15;15.60;;;6.35;;
61709;SDS011;47633;51.494;5.386;2022-10-31T11:21:44;10.70;;;6.00;;
61709;SDS011;47633;51.494;5.386;2022-10-31T11:26:38;9.73;;;5.60;;
61709;SDS011;47633;51.494;5.386;2022-10-31T11:29:05;10.35;;;6.40;;
61709;SDS011;47633;51.494;5.386;2022-10-31T11:31:40;14.52;;;6.22;;
61709;SDS011;47633;51.494;5.386;2022-10-31T11:34:11;10.27;;;6.30;;
61709;SDS011;47633;51.494;5.386;2022-10-31T11:36:42;11.98;;;6.93;;
61709;SDS011;47633;51.494;5.386;2022-10-31T11:39:43;10.15;;;5.60;;
61709;SDS011;47633;51.494;5.386;2022-10-31T11:42:04;12.45;;;6.30;;
61709;SDS011;47633;51.494;5.386;2022-10-31T11:44:30;9.50;;;5.70;;
61709;SDS011;47633;51.494;5.386;2022-10-31T11:46:58;10.43;;;6.18;;
61709;SDS011;47633;51.494;5.386;2022-10-31T11:52:16;9.43;;;5.90;;
61709;SDS011;47633;51.494;5.386;2022-10-31T11:54:46;12.27;;;5.95;;
61709;SDS011;47633;51.494;5.386;2022-10-31T11:57:33;13.98;;;5.47;;
61709;SDS011;47633;51.494;5.386;2022-10-31T12:00:21;8.68;;;5.75;;
61709;SDS011;47633;51.494;5.386;2022-10-31T12:08:33;9.70;;;5.57;;
61709;SDS011;47633;51.494;5.386;2022-10-31T12:22:12;11.50;;;5.68;;
61709;SDS011;47633;51.494;5.386;2022-10-31T12:25:09;10.23;;;4.97;;
61709;SDS011;47633;51.494;5.386;2022-10-31T12:28:03;9.35;;;5.18;;
61709;SDS011;47633;51.494;5.386;2022-10-31T12:33:52;9.68;;;5.18;;
61709;SDS011;47633;51.494;5.386;2022-10-31T12:39:42;9.57;;;5.28;;
61709;SDS011;47633;51.494;5.386;2022-10-31T12:53:43;9.60;;;5.15;;
61709;SDS011;47633;51.494;5.386;2022-10-31T12:56:22;10.35;;;5.60;;
61709;SDS011;47633;51.494;5.386;2022-10-31T12:59:00;10.80;;;5.05;;
61709;SDS011;47633;51.494;5.386;2022-10-31T13:01:34;8.70;;;4.80;;
61709;SDS011;47633;51.494;5.386;2022-10-31T13:04:03;8.10;;;4.72;;
61709;SDS011;47633;51.494;5.386;2022-10-31T13:06:37;9.38;;;5.15;;
61709;SDS011;47633;51.494;5.386;2022-10-31T13:09:06;8.60;;;4.55;;
61709;SDS011;47633;51.494;5.386;2022-10-31T13:11:36;7.55;;;4.80;;
61709;SDS011;47633;51.494;5.386;2022-10-31T13:14:09;9.52;;;4.78;;
61709;SDS011;47633;51.494;5.386;2022-10-31T13:16:43;8.00;;;4.50;;
61709;SDS011;47633;51.494;5.386;2022-10-31T13:24:40;7.38;;;4.90;;
61709;SDS011;47633;51.494;5.386;2022-10-31T13:27:15;12.95;;;5.65;;
61709;SDS011;47633;51.494;5.386;2022-10-31T13:35:41;10.02;;;4.60;;
61709;SDS011;47633;51.494;5.386;2022-10-31T13:38:31;10.43;;;4.47;;
61709;SDS011;47633;51.494;5.386;2022-10-31T13:41:17;11.52;;;4.55;;
61709;SDS011;47633;51.494;5.386;2022-10-31T13:46:37;9.25;;;4.70;;
61709;SDS011;47633;51.494;5.386;2022-10-31T13:49:04;8.52;;;4.32;;
61709;SDS011;47633;51.494;5.386;2022-10-31T13:51:46;10.82;;;5.00;;
61709;SDS011;47633;51.494;5.386;2022-10-31T13:54:23;10.48;;;4.45;;
61709;SDS011;47633;51.494;5.386;2022-10-31T13:56:57;10.98;;;4.72;;
61709;SDS011;47633;51.494;5.386;2022-10-31T13:59:23;8.32;;;4.20;;
61709;SDS011;47633;51.494;5.386;2022-10-31T14:02:35;7.60;;;4.72;;
61709;SDS011;47633;51.494;5.386;2022-10-31T14:04:48;10.20;;;4.70;;
61709;SDS011;47633;51.494;5.386;2022-10-31T14:07:17;8.38;;;4.43;;
61709;SDS011;47633;51.494;5.386;2022-10-31T14:10:04;8.48;;;4.28;;
61709;SDS011;47633;51.494;5.386;2022-10-31T14:12:44;8.02;;;4.25;;
61709;SDS011;47633;51.494;5.386;2022-10-31T14:15:19;10.30;;;4.93;;
61709;SDS011;47633;51.494;5.386;2022-10-31T14:17:48;8.68;;;4.30;;
61709;SDS011;47633;51.494;5.386;2022-10-31T14:23:13;10.23;;;4.55;;
61709;SDS011;47633;51.494;5.386;2022-10-31T14:26:19;12.65;;;4.88;;
61709;SDS011;47633;51.494;5.386;2022-10-31T14:28:44;8.40;;;4.68;;
61709;SDS011;47633;51.494;5.386;2022-10-31T14:34:01;7.78;;;4.30;;
61709;SDS011;47633;51.494;5.386;2022-10-31T14:36:45;9.60;;;4.55;;
61709;SDS011;47633;51.494;5.386;2022-10-31T14:39:13;10.45;;;4.18;;
61709;SDS011;47633;51.494;5.386;2022-10-31T14:41:57;8.60;;;4.40;;
61709;SDS011;47633;51.494;5.386;2022-10-31T14:44:43;11.10;;;5.00;;
61709;SDS011;47633;51.494;5.386;2022-10-31T14:52:31;8.68;;;4.38;;
61709;SDS011;47633;51.494;5.386;2022-10-31T14:54:57;8.82;;;4.75;;
61709;SDS011;47633;51.494;5.386;2022-10-31T14:57:31;8.98;;;4.40;;
61709;SDS011;47633;51.494;5.386;2022-10-31T15:00:06;8.75;;;4.18;;
61709;SDS011;47633;51.494;5.386;2022-10-31T15:02:49;8.70;;;4.22;;
61709;SDS011;47633;51.494;5.386;2022-10-31T15:05:34;11.02;;;5.47;;
61709;SDS011;47633;51.494;5.386;2022-10-31T15:08:13;9.27;;;3.92;;
61709;SDS011;47633;51.494;5.386;2022-10-31T15:10:50;9.00;;;4.22;;
61709;SDS011;47633;51.494;5.386;2022-10-31T15:13:20;9.68;;;4.90;;
61709;SDS011;47633;51.494;5.386;2022-10-31T15:15:46;6.72;;;4.10;;
61709;SDS011;47633;51.494;5.386;2022-10-31T15:18:14;10.27;;;4.45;;
61709;SDS011;47633;51.494;5.386;2022-10-31T15:20:43;12.35;;;4.38;;
61709;SDS011;47633;51.494;5.386;2022-10-31T15:23:10;8.75;;;4.18;;
61709;SDS011;47633;51.494;5.386;2022-10-31T15:25:39;9.45;;;4.10;;
61709;SDS011;47633;51.494;5.386;2022-10-31T15:28:15;8.15;;;4.50;;
61709;SDS011;47633;51.494;5.386;2022-10-31T15:30:53;7.93;;;4.57;;
61709;SDS011;47633;51.494;5.386;2022-10-31T15:33:29;7.50;;;4.32;;
61709;SDS011;47633;51.494;5.386;2022-10-31T15:35:57;7.88;;;4.25;;
61709;SDS011;47633;51.494;5.386;2022-10-31T15:38:24;11.73;;;4.50;;
61709;SDS011;47633;51.494;5.386;2022-10-31T15:40:54;7.78;;;4.20;;
61709;SDS011;47633;51.494;5.386;2022-10-31T15:43:23;6.10;;;4.05;;
61709;SDS011;47633;51.494;5.386;2022-10-31T15:45:48;8.10;;;4.38;;
61709;SDS011;47633;51.494;5.386;2022-10-31T15:50:59;9.00;;;4.40;;
61709;SDS011;47633;51.494;5.386;2022-10-31T15:53:34;8.90;;;4.45;;
61709;SDS011;47633;51.494;5.386;2022-10-31T15:56:05;7.07;;;4.22;;
61709;SDS011;47633;51.494;5.386;2022-10-31T15:58:33;6.93;;;4.13;;
61709;SDS011;47633;51.494;5.386;2022-10-31T16:01:05;8.80;;;3.97;;
61709;SDS011;47633;51.494;5.386;2022-10-31T16:03:43;8.02;;;4.30;;
61709;SDS011;47633;51.494;5.386;2022-10-31T16:06:18;13.63;;;6.00;;
61709;SDS011;47633;51.494;5.386;2022-10-31T16:08:45;13.60;;;7.38;;
61709;SDS011;47633;51.494;5.386;2022-10-31T16:11:15;18.85;;;11.10;;
61709;SDS011;47633;51.494;5.386;2022-10-31T16:16:32;25.55;;;19.05;;
61709;SDS011;47633;51.494;5.386;2022-10-31T16:18:59;31.20;;;22.55;;
61709;SDS011;47633;51.494;5.386;2022-10-31T16:21:28;32.45;;;26.45;;
61709;SDS011;47633;51.494;5.386;2022-10-31T16:24:00;35.72;;;27.10;;
61709;SDS011;47633;51.494;5.386;2022-10-31T16:26:29;43.08;;;31.60;;
61709;SDS011;47633;51.494;5.386;2022-10-31T16:28:56;40.22;;;33.95;;
61709;SDS011;47633;51.494;5.386;2022-10-31T16:31:30;46.00;;;35.30;;
61709;SDS011;47633;51.494;5.386;2022-10-31T16:34:05;43.33;;;35.53;;
61709;SDS011;47633;51.494;5.386;2022-10-31T16:36:36;43.95;;;35.25;;
61709;SDS011;47633;51.494;5.386;2022-10-31T16:39:04;43.50;;;34.60;;
61709;SDS011;47633;51.494;5.386;2022-10-31T16:41:29;42.75;;;36.75;;
61709;SDS011;47633;51.494;5.386;2022-10-31T16:43:56;42.75;;;32.33;;
61709;SDS011;47633;51.494;5.386;2022-10-31T16:46:22;40.53;;;33.03;;
61709;SDS011;47633;51.494;5.386;2022-10-31T16:48:49;43.20;;;32.38;;
61709;SDS011;47633;51.494;5.386;2022-10-31T16:51:15;39.00;;;30.08;;
61709;SDS011;47633;51.494;5.386;2022-10-31T16:53:40;36.20;;;29.63;;
61709;SDS011;47633;51.494;5.386;2022-10-31T16:56:05;39.75;;;30.17;;
61709;SDS011;47633;51.494;5.386;2022-10-31T16:58:45;38.78;;;29.98;;
61709;SDS011;47633;51.494;5.386;2022-10-31T17:01:10;41.42;;;28.52;;
61709;SDS011;47633;51.494;5.386;2022-10-31T17:03:37;34.80;;;26.67;;
61709;SDS011;47633;51.494;5.386;2022-10-31T17:06:02;35.80;;;26.97;;